Time;durP1;ratioP1;P1;durP2;ratioP2;P2;SDS_P1;SDS_P2;PMS_P1;PMS_P2;Temp;Humidity;BMP_temperature;BMP_pressure;BME280_temperature;BME280_humidity;BME280_pressure;Samples;Min_cycle;Max_cycle;Signal;HPM_P1;HPM_P2
2022/07/15 00:01:54;;;;;;;;;;;;;;;;;;2205836;67;1169;-65
2022/07/15 00:04:27;;;;;;;;;;;;;;;;;;2205993;59;1320;-64
2022/07/15 00:07:06;;;;;;;;;;;;;;;;;;2205473;67;1120;-64
2022/07/15 00:12:28;;;;;;;;;;;;;;;;;;2206015;59;1428;-65
2022/07/15 00:15:02;;;;;;;;;;;;;;;;;;2205353;67;1237;-65
2022/07/15 00:17:35;;;;;;;;;;;;;;;;;;2205851;67;1163;-65
2022/07/15 00:20:09;;;;;;;;;;;;;;;;;;2204538;67;1998;-64
2022/07/15 00:22:46;;;;;;;;;;;;;;;;;;2205588;67;1081;-63
2022/07/15 00:25:19;;;;;;;;;;;;;;;;;;2205567;67;1191;-65
2022/07/15 00:27:54;;;;;;;;;;;;;;;;;;2205562;67;1222;-65
2022/07/15 00:30:31;;;;;;;;;;;;;;;;;;2205097;59;2026;-64
2022/07/15 00:33:05;;;;;;;;;;;;;;;;;;2205403;59;1375;-64
2022/07/15 00:35:39;;;;;;;;;;;;;;;;;;2205751;67;1142;-64
2022/07/15 00:38:15;;;;;;;;;;;;;;;;;;2204834;59;1391;-64
2022/07/15 00:40:49;;;;;;;;;;;;;;;;;;2205283;67;1937;-65
2022/07/15 00:43:22;;;;;;;;;;;;;;;;;;2205482;67;1283;-65
2022/07/15 00:45:56;;;;;;;;;;;;;;;;;;2204915;67;1224;-65
2022/07/15 00:48:29;;;;;;;;;;;;;;;;;;2205433;67;1203;-65
2022/07/15 00:51:02;;;;;;;;;;;;;;;;;;2205136;67;1247;-65
2022/07/15 00:53:38;;;;;;;;;;;;;;;;;;2205579;67;1263;-65
2022/07/15 00:56:12;;;;;;;;;;;;;;;;;;2205975;67;1266;-65
2022/07/15 00:58:45;;;;;;;;;;;;;;;;;;2206442;67;1225;-64
2022/07/15 01:01:21;;;;;;;;;;;;;;;;;;2206431;67;1940;-65
2022/07/15 01:03:55;;;;;;;;;;;;;;;;;;2207388;59;1415;-66
2022/07/15 01:06:29;;;;;;;;;;;;;;;;;;2206960;67;1251;-65
2022/07/15 01:09:05;;;;;;;;;;;;;;;;;;2207403;67;1248;-66
2022/07/15 01:11:38;;;;;;;;;;;;;;;;;;2207098;59;1399;-65
2022/07/15 01:14:11;;;;;;;;;;;;;;;;;;2206588;67;1172;-65
2022/07/15 01:16:44;;;;;;;;;;;;;;;;;;2206545;67;1238;-65
2022/07/15 01:19:17;;;;;;;;;;;;;;;;;;2207330;67;1945;-65
2022/07/15 01:21:53;;;;;;;;;;;;;;;;;;2206431;67;1018;-64
2022/07/15 01:24:26;;;;;;;;;;;;;;;;;;2206549;67;1106;-65
2022/07/15 01:27:00;;;;;;;;;;;;;;;;;;2207152;67;1280;-65
2022/07/15 01:29:33;;;;;;;;;;;;;;;;;;2206712;67;1258;-65
2022/07/15 01:32:07;;;;;;;;;;;;;;;;;;2206232;59;2175;-64
2022/07/15 01:34:40;;;;;;;;;;;;;;;;;;2206338;67;1242;-65
2022/07/15 01:37:16;;;;;;;;;;;;;;;;;;2206487;67;1255;-65
2022/07/15 01:39:49;;;;;;;;;;;;;;;;;;2205557;59;1943;-65
2022/07/15 01:42:23;;;;;;;;;;;;;;;;;;2206796;67;1118;-65
2022/07/15 01:44:56;;;;;;;;;;;;;;;;;;2206770;67;1236;-65
2022/07/15 01:47:31;;;;;;;;;;;;;;;;;;2206231;67;1120;-65
2022/07/15 01:50:05;;;;;;;;;;;;;;;;;;2206550;67;1222;-65
2022/07/15 01:52:41;;;;;;;;;;;;;;;;;;2206261;67;1113;-65
2022/07/15 01:55:14;;;;;;;;;;;;;;;;;;2205870;67;1125;-63
2022/07/15 01:57:47;;;;;;;;;;;;;;;;;;2206559;67;1177;-65
2022/07/15 02:00:20;;;;;;;;;;;;;;;;;;2206152;67;1928;-64
2022/07/15 02:02:54;;;;;;;;;;;;;;;;;;2206146;59;1315;-64
2022/07/15 02:05:27;;;;;;;;;;;;;;;;;;2206456;67;1283;-65
2022/07/15 02:08:03;;;;;;;;;;;;;;;;;;2206279;67;1223;-64
2022/07/15 02:10:42;;;;;;;;;;;;;;;;;;2206510;59;1437;-65
2022/07/15 02:13:15;;;;;;;;;;;;;;;;;;2206346;59;1203;-64
2022/07/15 02:15:49;;;;;;;;;;;;;;;;;;2205804;67;1160;-65
2022/07/15 02:18:23;;;;;;;;;;;;;;;;;;2206311;67;1215;-63
2022/07/15 02:20:56;;;;;;;;;;;;;;;;;;2206296;67;1940;-65
2022/07/15 02:23:32;;;;;;;;;;;;;;;;;;2205995;67;1250;-65
2022/07/15 02:26:05;;;;;;;;;;;;;;;;;;2205879;67;1047;-65
2022/07/15 02:28:38;;;;;;;;;;;;;;;;;;2206234;67;1304;-64
2022/07/15 02:31:11;;;;;;;;;;;;;;;;;;2205795;59;2048;-65
2022/07/15 02:33:44;;;;;;;;;;;;;;;;;;2206112;67;1100;-63
2022/07/15 02:36:17;;;;;;;;;;;;;;;;;;2206055;67;1217;-65
2022/07/15 02:38:53;;;;;;;;;;;;;;;;;;2205713;59;1390;-66
2022/07/15 02:41:27;;;;;;;;;;;;;;;;;;2205647;59;1987;-65
2022/07/15 02:44:02;;;;;;;;;;;;;;;;;;2206100;67;1297;-65
2022/07/15 02:46:35;;;;;;;;;;;;;;;;;;2205607;67;1129;-64
2022/07/15 02:49:09;;;;;;;;;;;;;;;;;;2205797;67;1219;-65
2022/07/15 02:51:42;;;;;;;;;;;;;;;;;;2205554;67;1160;-65
2022/07/15 02:54:18;;;;;;;;;;;;;;;;;;2205531;67;1199;-65
2022/07/15 02:56:51;;;;;;;;;;;;;;;;;;2205848;67;1188;-65
2022/07/15 02:59:25;;;;;;;;;;;;;;;;;;2205615;67;1256;-66
2022/07/15 03:01:58;;;;;;;;;;;;;;;;;;2205177;67;1948;-65
2022/07/15 03:04:31;;;;;;;;;;;;;;;;;;2204554;59;2240;-64
2022/07/15 03:07:04;;;;;;;;;;;;;;;;;;2205130;59;1403;-66
2022/07/15 03:09:41;;;;;;;;;;;;;;;;;;2205467;59;1171;-68
2022/07/15 03:12:14;;;;;;;;;;;;;;;;;;2206083;59;1359;-64
2022/07/15 03:14:47;;;;;;;;;;;;;;;;;;2207693;67;1169;-64
2022/07/15 03:17:20;;;;;;;;;;;;;;;;;;2207790;67;1180;-64
2022/07/15 03:19:55;;;;;;;;;;;;;;;;;;2205397;59;1917;-64
2022/07/15 03:22:29;;;;;;;;;;;;;;;;;;2204942;67;1268;-64
2022/07/15 03:25:05;;;;;;;;;;;;;;;;;;2205016;67;1236;-63
2022/07/15 03:27:38;;;;;;;;;;;;;;;;;;2205691;67;1250;-64
2022/07/15 03:30:11;;;;;;;;;;;;;;;;;;2205552;59;2081;-64
2022/07/15 03:32:45;;;;;;;;;;;;;;;;;;2205821;59;1410;-64
2022/07/15 03:35:18;;;;;;;;;;;;;;;;;;2205878;67;1157;-64
2022/07/15 03:37:51;;;;;;;;;;;;;;;;;;2205481;67;1424;-65
2022/07/15 03:40:27;;;;;;;;;;;;;;;;;;2206500;59;1919;-65
2022/07/15 03:43:00;;;;;;;;;;;;;;;;;;2205386;67;1118;-64
2022/07/15 03:45:34;;;;;;;;;;;;;;;;;;2205741;67;1240;-65
2022/07/15 03:48:08;;;;;;;;;;;;;;;;;;2205456;67;1389;-64
2022/07/15 03:50:41;;;;;;;;;;;;;;;;;;2206080;67;1037;-65
2022/07/15 03:53:14;;;;;;;;;;;;;;;;;;2206210;67;1228;-65
2022/07/15 03:55:50;;;;;;;;;;;;;;;;;;2205499;67;1188;-63
2022/07/15 03:58:23;;;;;;;;;;;;;;;;;;2206575;67;1264;-64
2022/07/15 04:00:57;;;;;;;;;;;;;;;;;;2205886;67;1917;-63
2022/07/15 04:03:30;;;;;;;;;;;;;;;;;;2205341;67;1219;-64
2022/07/15 04:06:03;;;;;;;;;;;;;;;;;;2205715;67;1239;-63
2022/07/15 04:08:36;;;;;;;;;;;;;;;;;;2205767;67;1301;-64
2022/07/15 04:11:12;;;;;;;;;;;;;;;;;;2205669;59;1439;-64
2022/07/15 04:13:46;;;;;;;;;;;;;;;;;;2206232;67;1077;-63
2022/07/15 04:16:20;;;;;;;;;;;;;;;;;;2205779;67;1153;-64
2022/07/15 04:18:53;;;;;;;;;;;;;;;;;;2205409;67;1254;-65
2022/07/15 04:21:26;;;;;;;;;;;;;;;;;;2206180;67;1925;-65
2022/07/15 04:24:00;;;;;;;;;;;;;;;;;;2205448;67;1243;-66
2022/07/15 04:26:36;;;;;;;;;;;;;;;;;;2205379;67;1236;-65
2022/07/15 04:29:09;;;;;;;;;;;;;;;;;;2205073;67;1237;-65
2022/07/15 04:31:42;;;;;;;;;;;;;;;;;;2206201;59;1960;-63
2022/07/15 04:34:15;;;;;;;;;;;;;;;;;;2205594;67;1149;-66
2022/07/15 04:36:48;;;;;;;;;;;;;;;;;;2206076;67;1223;-64
2022/07/15 04:39:22;;;;;;;;;;;;;;;;;;2208129;53;3587;-75
2022/07/15 04:41:58;;;;;;;;;;;;;;;;;;2205143;67;1928;-75
2022/07/15 04:44:31;;;;;;;;;;;;;;;;;;2205736;67;1215;-77
2022/07/15 04:47:05;;;;;;;;;;;;;;;;;;2205319;59;1265;-75
2022/07/15 04:52:29;;;;;;;;;;;;;;;;;;2205043;59;1164;-74
2022/07/15 04:55:03;;;;;;;;;;;;;;;;;;2208379;53;3677;-56
2022/07/15 04:57:39;;;;;;;;;;;;;;;;;;2207046;67;1096;-54
2022/07/15 05:00:13;;;;;;;;;;;;;;;;;;2206405;59;1224;-55
2022/07/15 05:02:47;;;;;;;;;;;;;;;;;;2206272;67;1952;-54
2022/07/15 05:05:21;;;;;;;;;;;;;;;;;;2206529;67;1233;-54
2022/07/15 05:07:54;;;;;;;;;;;;;;;;;;2206277;59;1218;-54
2022/07/15 05:10:27;;;;;;;;;;;;;;;;;;2206698;67;1236;-54
2022/07/15 05:13:03;;;;;;;;;;;;;;;;;;2206552;59;1244;-54
2022/07/15 05:15:37;;;;;;;;;;;;;;;;;;2207791;67;1083;-54
2022/07/15 05:18:10;;;;;;;;;;;;;;;;;;2206910;67;1590;-54
2022/07/15 05:20:43;;;;;;;;;;;;;;;;;;2207472;67;1939;-54
2022/07/15 05:23:18;;;;;;;;;;;;;;;;;;2206948;67;1185;-54
2022/07/15 05:25:51;;;;;;;;;;;;;;;;;;2208438;59;1236;-54
2022/07/15 05:28:27;;;;;;;;;;;;;;;;;;2207201;67;1186;-54
2022/07/15 05:31:01;;;;;;;;;;;;;;;;;;2207356;59;1953;-54
2022/07/15 05:33:34;;;;;;;;;;;;;;;;;;2207640;67;1144;-55
2022/07/15 05:36:07;;;;;;;;;;;;;;;;;;2206883;67;1215;-54
2022/07/15 05:38:40;;;;;;;;;;;;;;;;;;2207223;67;1208;-54
2022/07/15 05:41:14;;;;;;;;;;;;;;;;;;2207089;67;1939;-54
2022/07/15 05:43:50;;;;;;;;;;;;;;;;;;2207185;67;1175;-54
2022/07/15 05:46:23;;;;;;;;;;;;;;;;;;2207052;67;1182;-54
2022/07/15 05:48:56;;;;;;;;;;;;;;;;;;2207313;67;1244;-55
2022/07/15 05:51:29;;;;;;;;;;;;;;;;;;2207093;67;1065;-55
2022/07/15 05:54:03;;;;;;;;;;;;;;;;;;2207104;67;1152;-54
2022/07/15 05:56:36;;;;;;;;;;;;;;;;;;2206955;59;2147;-54
2022/07/15 05:59:12;;;;;;;;;;;;;;;;;;2206362;67;1247;-54
2022/07/15 06:01:46;;;;;;;;;;;;;;;;;;2207118;67;1938;-54
2022/07/15 06:04:19;;;;;;;;;;;;;;;;;;2206119;67;1189;-54
2022/07/15 06:06:52;;;;;;;;;;;;;;;;;;2206727;67;1157;-54
2022/07/15 06:09:25;;;;;;;;;;;;;;;;;;2206539;67;1315;-55
2022/07/15 06:11:58;;;;;;;;;;;;;;;;;;2206770;59;1334;-55
2022/07/15 06:14:34;;;;;;;;;;;;;;;;;;2206532;59;1253;-55
2022/07/15 06:17:07;;;;;;;;;;;;;;;;;;2205963;67;1172;-54
2022/07/15 06:19:40;;;;;;;;;;;;;;;;;;2207032;67;1194;-61
2022/07/15 06:22:13;;;;;;;;;;;;;;;;;;2206641;67;1939;-57
2022/07/15 06:24:47;;;;;;;;;;;;;;;;;;2206306;59;1933;-54
2022/07/15 06:27:22;;;;;;;;;;;;;;;;;;2207204;59;1215;-55
2022/07/15 06:29:58;;;;;;;;;;;;;;;;;;2206487;67;1230;-56
2022/07/15 06:32:31;;;;;;;;;;;;;;;;;;2206434;59;2203;-54
2022/07/15 06:35:04;;;;;;;;;;;;;;;;;;2206183;67;1290;-54
2022/07/15 06:37:37;;;;;;;;;;;;;;;;;;2207168;67;1187;-55
2022/07/15 06:40:11;;;;;;;;;;;;;;;;;;2208064;67;1268;-54
2022/07/15 06:42:45;;;;;;;;;;;;;;;;;;2208590;67;1991;-54
2022/07/15 06:45:21;;;;;;;;;;;;;;;;;;2208332;67;1198;-54
2022/07/15 06:47:55;;;;;;;;;;;;;;;;;;2207584;67;1169;-54
2022/07/15 06:50:28;;;;;;;;;;;;;;;;;;2206426;59;2198;-54
2022/07/15 06:53:03;;;;;;;;;;;;;;;;;;2207203;59;1260;-54
2022/07/15 06:55:37;;;;;;;;;;;;;;;;;;2206465;67;1207;-54
2022/07/15 06:58:10;;;;;;;;;;;;;;;;;;2206738;67;1227;-54
2022/07/15 07:00:46;;;;;;;;;;;;;;;;;;2206512;67;1279;-56
2022/07/15 07:03:19;;;;;;;;;;;;;;;;;;2207171;67;1934;-55
2022/07/15 07:05:52;;;;;;;;;;;;;;;;;;2207062;67;1143;-56
2022/07/15 07:08:25;;;;;;;;;;;;;;;;;;2207451;67;1244;-54
2022/07/15 07:10:58;;;;;;;;;;;;;;;;;;2207205;59;1384;-54
2022/07/15 07:13:32;;;;;;;;;;;;;;;;;;2203230;67;1625;-54
2022/07/15 07:16:08;;;;;;;;;;;;;;;;;;2207524;67;1129;-54
2022/07/15 07:18:42;;;;;;;;;;;;;;;;;;2206960;67;1723;-54
2022/07/15 07:21:15;;;;;;;;;;;;;;;;;;2207518;67;1933;-55
2022/07/15 07:23:48;;;;;;;;;;;;;;;;;;2206435;59;1953;-54
2022/07/15 07:26:21;;;;;;;;;;;;;;;;;;2206987;67;1087;-56
2022/07/15 07:28:55;;;;;;;;;;;;;;;;;;2206595;67;1217;-54
2022/07/15 07:31:30;;;;;;;;;;;;;;;;;;2206808;59;1512;-55
2022/07/15 07:34:04;;;;;;;;;;;;;;;;;;2206743;67;1262;-54
2022/07/15 07:36:37;;;;;;;;;;;;;;;;;;2206742;67;1015;-54
2022/07/15 07:39:10;;;;;;;;;;;;;;;;;;2206699;67;1281;-54
2022/07/15 07:41:44;;;;;;;;;;;;;;;;;;2206673;67;1936;-57
2022/07/15 07:44:17;;;;;;;;;;;;;;;;;;2206845;67;1203;-55
2022/07/15 07:46:52;;;;;;;;;;;;;;;;;;2206251;67;1166;-57
2022/07/15 07:49:26;;;;;;;;;;;;;;;;;;2206881;67;1197;-56
2022/07/15 07:51:59;;;;;;;;;;;;;;;;;;2206524;67;1230;-55
2022/07/15 07:54:33;;;;;;;;;;;;;;;;;;2205857;67;1109;-60
2022/07/15 07:57:06;;;;;;;;;;;;;;;;;;2206247;67;1199;-54
2022/07/15 07:59:39;;;;;;;;;;;;;;;;;;2206310;67;1204;-56
2022/07/15 08:02:15;;;;;;;;;;;;;;;;;;2206606;67;1987;-57
2022/07/15 08:04:48;;;;;;;;;;;;;;;;;;2205831;67;1151;-56
2022/07/15 08:07:22;;;;;;;;;;;;;;;;;;2206170;67;1208;-56
2022/07/15 08:09:55;;;;;;;;;;;;;;;;;;2206003;67;1325;-56
2022/07/15 08:12:28;;;;;;;;;;;;;;;;;;2206476;59;1669;-54
2022/07/15 08:15:01;;;;;;;;;;;;;;;;;;2206516;67;1128;-56
2022/07/15 08:17:37;;;;;;;;;;;;;;;;;;2206039;67;1279;-59
2022/07/15 08:20:13;;;;;;;;;;;;;;;;;;2206173;67;1213;-54
2022/07/15 08:22:46;;;;;;;;;;;;;;;;;;2206344;67;1980;-56
2022/07/15 08:25:20;;;;;;;;;;;;;;;;;;2206422;67;1287;-56
2022/07/15 08:27:53;;;;;;;;;;;;;;;;;;2206160;67;1188;-55
2022/07/15 08:30:26;;;;;;;;;;;;;;;;;;2206536;67;1226;-55
2022/07/15 08:33:02;;;;;;;;;;;;;;;;;;2206345;59;1432;-59
2022/07/15 08:35:36;;;;;;;;;;;;;;;;;;2206232;67;1137;-56
2022/07/15 08:38:09;;;;;;;;;;;;;;;;;;2205664;67;1252;-56
2022/07/15 08:40:43;;;;;;;;;;;;;;;;;;2205997;67;1196;-56
2022/07/15 08:43:16;;;;;;;;;;;;;;;;;;2206382;67;2072;-57
2022/07/15 08:45:50;;;;;;;;;;;;;;;;;;2204851;67;1136;-55
2022/07/15 08:48:28;;;;;;;;;;;;;;;;;;2206210;67;1292;-57
2022/07/15 08:51:02;;;;;;;;;;;;;;;;;;2205466;67;1153;-60
2022/07/15 08:53:35;;;;;;;;;;;;;;;;;;2205730;67;1152;-57
2022/07/15 08:56:09;;;;;;;;;;;;;;;;;;2206077;59;1317;-55
2022/07/15 08:58:42;;;;;;;;;;;;;;;;;;2206180;67;1186;-55
2022/07/15 09:01:15;;;;;;;;;;;;;;;;;;2206738;67;1176;-58
2022/07/15 09:03:51;;;;;;;;;;;;;;;;;;2205759;67;1932;-56
2022/07/15 09:06:34;;;;;;;;;;;;;;;;;;2206590;67;1211;-55
2022/07/15 09:09:22;;;;;;;;;;;;;;;;;;2206176;67;1362;-56
2022/07/15 09:12:00;;;;;;;;;;;;;;;;;;2206879;59;1295;-55
2022/07/15 09:14:35;;;;;;;;;;;;;;;;;;2205640;67;1186;-55
2022/07/15 09:17:20;;;;;;;;;;;;;;;;;;2206892;67;1096;-55
2022/07/15 09:20:05;;;;;;;;;;;;;;;;;;2205912;67;1240;-57
2022/07/15 09:22:52;;;;;;;;;;;;;;;;;;2205903;67;1928;-56
2022/07/15 09:25:25;;;;;;;;;;;;;;;;;;2206937;67;1224;-57
2022/07/15 09:28:01;;;;;;;;;;;;;;;;;;2206881;59;1246;-55
2022/07/15 09:33:38;;;;;;;;;;;;;;;;;;2207279;67;1177;-56
2022/07/15 09:36:16;;;;;;;;;;;;;;;;;;2207365;67;1217;-59
2022/07/15 09:38:50;;;;;;;;;;;;;;;;;;2206639;67;1228;-57
2022/07/15 09:41:28;;;;;;;;;;;;;;;;;;2207409;67;1292;-57
2022/07/15 09:44:03;;;;;;;;;;;;;;;;;;2206070;67;1988;-57
2022/07/15 09:46:44;;;;;;;;;;;;;;;;;;2206804;67;1307;-56
2022/07/15 09:49:18;;;;;;;;;;;;;;;;;;2207297;67;1274;-59
2022/07/15 09:51:55;;;;;;;;;;;;;;;;;;2207147;67;1146;-57
2022/07/15 09:54:30;;;;;;;;;;;;;;;;;;2206785;59;1192;-55
2022/07/15 09:57:05;;;;;;;;;;;;;;;;;;2206938;67;1310;-55
2022/07/15 09:59:38;;;;;;;;;;;;;;;;;;2207277;67;1282;-55
2022/07/15 10:02:11;;;;;;;;;;;;;;;;;;2207111;67;1941;-59
2022/07/15 10:04:46;;;;;;;;;;;;;;;;;;2206144;67;1121;-55
2022/07/15 10:07:23;;;;;;;;;;;;;;;;;;2206718;67;1245;-58
2022/07/15 10:09:56;;;;;;;;;;;;;;;;;;2206677;59;1411;-57
2022/07/15 10:12:36;;;;;;;;;;;;;;;;;;2207247;59;1247;-59
2022/07/15 10:15:15;;;;;;;;;;;;;;;;;;2206677;67;1127;-55
2022/07/15 10:18:00;;;;;;;;;;;;;;;;;;2206470;67;1051;-57
2022/07/15 10:20:41;;;;;;;;;;;;;;;;;;2206942;67;1238;-55
2022/07/15 10:23:25;;;;;;;;;;;;;;;;;;2206221;67;1992;-56
2022/07/15 10:26:07;;;;;;;;;;;;;;;;;;2206745;67;1218;-55
2022/07/15 10:28:47;;;;;;;;;;;;;;;;;;2206748;67;1272;-55
2022/07/15 10:31:22;;;;;;;;;;;;;;;;;;2207214;59;2097;-55
2022/07/15 10:34:23;;;;;;;;;;;;;;;;;;2206217;67;1246;-55
2022/07/15 10:37:01;;;;;;;;;;;;;;;;;;2200210;67;2429;-55
2022/07/15 10:39:53;;;;;;;;;;;;;;;;;;2206627;67;1269;-56
2022/07/15 10:42:26;;;;;;;;;;;;;;;;;;2206237;67;1203;-57
2022/07/15 10:45:07;;;;;;;;;;;;;;;;;;2206688;67;1166;-58
2022/07/15 10:47:41;;;;;;;;;;;;;;;;;;2206886;67;1194;-57
2022/07/15 11:00:58;;;;;;;;;;;;;;;;;;2313434;53;1873;-65
2022/07/15 11:03:31;;;;;;;;;;;;;;;;;;2206155;59;1932;-65
2022/07/15 11:06:08;;;;;;;;;;;;;;;;;;2206357;59;1178;-63
2022/07/15 11:08:57;;;;;;;;;;;;;;;;;;2206371;59;1320;-65
2022/07/15 11:11:53;;;;;;;;;;;;;;;;;;2206006;59;1699;-66
2022/07/15 11:14:44;;;;;;;;;;;;;;;;;;2206616;67;1297;-64
2022/07/15 11:17:22;;;;;;;;;;;;;;;;;;2206637;59;1243;-66
2022/07/15 11:19:57;;;;;;;;;;;;;;;;;;2206100;67;1251;-65
2022/07/15 11:22:31;;;;;;;;;;;;;;;;;;2205933;67;1113;-65
2022/07/15 11:25:06;;;;;;;;;;;;;;;;;;2205831;67;2055;-65
2022/07/15 11:27:39;;;;;;;;;;;;;;;;;;2206297;67;1131;-65
2022/07/15 11:30:14;;;;;;;;;;;;;;;;;;2206049;67;1986;-65
2022/07/15 11:32:57;;;;;;;;;;;;;;;;;;2205894;59;1452;-65
2022/07/15 11:35:30;;;;;;;;;;;;;;;;;;2206637;59;1260;-66
2022/07/15 11:38:05;;;;;;;;;;;;;;;;;;2205795;67;1208;-65
2022/07/15 11:46:22;;;;;;;;;;;;;;;;;;2205498;67;1164;-64
2022/07/15 11:48:59;;;;;;;;;;;;;;;;;;2205907;67;1247;-65
2022/07/15 11:51:33;;;;;;;;;;;;;;;;;;2205353;67;1279;-65
2022/07/15 11:54:06;;;;;;;;;;;;;;;;;;2205484;59;1220;-65
2022/07/15 11:56:39;;;;;;;;;;;;;;;;;;2205979;67;1696;-65
2022/07/15 11:59:15;;;;;;;;;;;;;;;;;;2205726;67;1267;-66
2022/07/15 12:01:48;;;;;;;;;;;;;;;;;;2205311;59;1262;-66
2022/07/15 12:04:31;;;;;;;;;;;;;;;;;;2205248;67;1936;-64
2022/07/15 12:07:04;;;;;;;;;;;;;;;;;;2205535;67;1113;-65
2022/07/15 12:09:41;;;;;;;;;;;;;;;;;;2205880;59;1215;-64
2022/07/15 12:12:17;;;;;;;;;;;;;;;;;;2205905;59;1431;-65
2022/07/15 12:14:51;;;;;;;;;;;;;;;;;;2205423;67;1182;-63
2022/07/15 12:17:24;;;;;;;;;;;;;;;;;;2205916;59;1207;-66
2022/07/15 12:20:03;;;;;;;;;;;;;;;;;;2205832;67;1157;-66
2022/07/15 12:22:37;;;;;;;;;;;;;;;;;;2204843;67;1219;-65
2022/07/15 12:25:20;;;;;;;;;;;;;;;;;;2204932;67;1988;-63
2022/07/15 12:27:54;;;;;;;;;;;;;;;;;;2206574;67;1217;-65
2022/07/15 12:30:33;;;;;;;;;;;;;;;;;;2206619;59;2020;-65
2022/07/15 12:33:16;;;;;;;;;;;;;;;;;;2206521;59;1493;-65
2022/07/15 12:35:52;;;;;;;;;;;;;;;;;;2206596;59;1069;-65
2022/07/15 12:38:30;;;;;;;;;;;;;;;;;;2206723;67;1206;-65
2022/07/15 12:41:10;;;;;;;;;;;;;;;;;;2206613;67;1231;-64
2022/07/15 12:43:51;;;;;;;;;;;;;;;;;;2206582;67;1926;-65
2022/07/15 12:46:45;;;;;;;;;;;;;;;;;;2206338;67;1266;-65
2022/07/15 12:49:33;;;;;;;;;;;;;;;;;;2206634;67;1183;-65
2022/07/15 12:52:22;;;;;;;;;;;;;;;;;;2203207;67;2620;-65
2022/07/15 12:54:56;;;;;;;;;;;;;;;;;;2206260;67;1238;-64
2022/07/15 12:57:34;;;;;;;;;;;;;;;;;;2206923;67;1128;-65
2022/07/15 13:00:10;;;;;;;;;;;;;;;;;;2206601;59;1296;-66
2022/07/15 13:03:00;;;;;;;;;;;;;;;;;;2206434;67;1047;-65
2022/07/15 13:05:34;;;;;;;;;;;;;;;;;;2205995;67;1944;-65
2022/07/15 13:08:11;;;;;;;;;;;;;;;;;;2206640;59;1370;-63
2022/07/15 13:10:45;;;;;;;;;;;;;;;;;;2206202;67;1265;-64
2022/07/15 13:13:20;;;;;;;;;;;;;;;;;;2206927;59;1264;-65
2022/07/15 13:15:54;;;;;;;;;;;;;;;;;;2207520;67;1107;-65
2022/07/15 13:18:28;;;;;;;;;;;;;;;;;;2207421;67;1216;-64
2022/07/15 13:21:01;;;;;;;;;;;;;;;;;;2206798;67;1295;-63
2022/07/15 13:23:38;;;;;;;;;;;;;;;;;;2206536;67;1936;-64
2022/07/15 13:26:11;;;;;;;;;;;;;;;;;;2206840;67;1292;-65
2022/07/15 13:28:44;;;;;;;;;;;;;;;;;;2206464;67;1092;-64
2022/07/15 13:31:17;;;;;;;;;;;;;;;;;;2206083;59;2022;-63
2022/07/15 13:33:50;;;;;;;;;;;;;;;;;;2206207;67;1247;-65
2022/07/15 13:36:26;;;;;;;;;;;;;;;;;;2206741;67;1304;-64
2022/07/15 13:39:02;;;;;;;;;;;;;;;;;;2206488;67;1268;-65
2022/07/15 13:41:36;;;;;;;;;;;;;;;;;;2205859;67;1330;-65
2022/07/15 13:44:09;;;;;;;;;;;;;;;;;;2205992;67;1990;-64
2022/07/15 13:46:42;;;;;;;;;;;;;;;;;;2205915;67;1101;-64
2022/07/15 13:49:15;;;;;;;;;;;;;;;;;;2206752;67;1244;-65
2022/07/15 13:51:47;;;;;;;;;;;;;;;;;;2205671;67;1269;-66
2022/07/15 13:54:23;;;;;;;;;;;;;;;;;;2206341;59;1194;-64
2022/07/15 13:56:56;;;;;;;;;;;;;;;;;;2205965;67;1220;-65
2022/07/15 13:59:30;;;;;;;;;;;;;;;;;;2205581;67;1128;-65
2022/07/15 14:02:04;;;;;;;;;;;;;;;;;;2206019;59;1191;-64
2022/07/15 14:04:37;;;;;;;;;;;;;;;;;;2205592;67;1996;-64
2022/07/15 14:07:10;;;;;;;;;;;;;;;;;;2205649;67;1104;-65
2022/07/15 14:09:46;;;;;;;;;;;;;;;;;;2205911;59;1359;-65
2022/07/15 14:12:19;;;;;;;;;;;;;;;;;;2206435;59;1293;-65
2022/07/15 14:14:52;;;;;;;;;;;;;;;;;;2205351;67;1248;-65
2022/07/15 14:17:28;;;;;;;;;;;;;;;;;;2206994;67;1142;-65
2022/07/15 14:20:01;;;;;;;;;;;;;;;;;;2205631;59;2269;-66
2022/07/15 14:22:35;;;;;;;;;;;;;;;;;;2206811;59;1832;-65
2022/07/15 14:25:11;;;;;;;;;;;;;;;;;;2202753;67;1984;-66
2022/07/15 14:27:44;;;;;;;;;;;;;;;;;;2206387;59;1272;-65
2022/07/15 14:30:17;;;;;;;;;;;;;;;;;;2206636;67;1310;-65
2022/07/15 14:32:51;;;;;;;;;;;;;;;;;;2206359;59;1454;-65
2022/07/15 14:35:24;;;;;;;;;;;;;;;;;;2206672;59;1519;-65
2022/07/15 14:37:57;;;;;;;;;;;;;;;;;;2206323;67;1259;-65
2022/07/15 14:40:33;;;;;;;;;;;;;;;;;;2206547;59;1242;-65
2022/07/15 14:43:07;;;;;;;;;;;;;;;;;;2207333;67;1137;-65
2022/07/15 14:45:40;;;;;;;;;;;;;;;;;;2206862;67;1913;-66
2022/07/15 14:48:13;;;;;;;;;;;;;;;;;;2206335;67;1169;-65
2022/07/15 14:50:46;;;;;;;;;;;;;;;;;;2206451;67;1242;-64
2022/07/15 14:53:19;;;;;;;;;;;;;;;;;;2206857;59;1454;-65
2022/07/15 14:55:55;;;;;;;;;;;;;;;;;;2206309;67;1229;-65
2022/07/15 14:58:29;;;;;;;;;;;;;;;;;;2207640;67;1306;-63
2022/07/15 15:01:02;;;;;;;;;;;;;;;;;;2206346;59;1246;-64
2022/07/15 15:03:35;;;;;;;;;;;;;;;;;;2206230;67;1224;-64
2022/07/15 15:06:08;;;;;;;;;;;;;;;;;;2206065;67;1983;-64
2022/07/15 15:08:41;;;;;;;;;;;;;;;;;;2206294;59;1358;-64
2022/07/15 15:11:22;;;;;;;;;;;;;;;;;;2206561;59;1569;-65
2022/07/15 15:13:55;;;;;;;;;;;;;;;;;;2206739;67;1220;-66
2022/07/15 15:16:28;;;;;;;;;;;;;;;;;;2206592;67;1125;-66
2022/07/15 15:19:01;;;;;;;;;;;;;;;;;;2206815;67;1175;-64
2022/07/15 15:21:36;;;;;;;;;;;;;;;;;;2207080;67;1255;-65
2022/07/15 15:24:09;;;;;;;;;;;;;;;;;;2205380;59;1916;-66
2022/07/15 15:26:45;;;;;;;;;;;;;;;;;;2206724;59;1550;-64
2022/07/15 15:29:18;;;;;;;;;;;;;;;;;;2206788;67;1456;-66
2022/07/15 15:31:51;;;;;;;;;;;;;;;;;;2206073;59;1348;-64
2022/07/15 15:34:27;;;;;;;;;;;;;;;;;;2206829;59;1121;-66
2022/07/15 15:37:00;;;;;;;;;;;;;;;;;;2206751;67;1281;-65
2022/07/15 15:39:33;;;;;;;;;;;;;;;;;;2206486;67;1240;-65
2022/07/15 15:42:10;;;;;;;;;;;;;;;;;;2206241;59;1208;-64
2022/07/15 15:44:44;;;;;;;;;;;;;;;;;;2203075;59;1953;-65
2022/07/15 15:47:17;;;;;;;;;;;;;;;;;;2207131;67;1216;-65
2022/07/15 15:49:50;;;;;;;;;;;;;;;;;;2206609;67;1225;-64
2022/07/15 15:52:24;;;;;;;;;;;;;;;;;;2207031;67;1216;-65
2022/07/15 15:54:57;;;;;;;;;;;;;;;;;;2206551;67;1200;-65
2022/07/15 15:57:34;;;;;;;;;;;;;;;;;;2207017;67;1188;-66
2022/07/15 16:00:09;;;;;;;;;;;;;;;;;;2206326;59;1294;-65
2022/07/15 16:02:42;;;;;;;;;;;;;;;;;;2205772;67;1113;-66
2022/07/15 16:05:15;;;;;;;;;;;;;;;;;;2206360;67;1930;-64
2022/07/15 16:07:49;;;;;;;;;;;;;;;;;;2206515;67;1121;-65
2022/07/15 16:10:23;;;;;;;;;;;;;;;;;;2206372;59;1717;-65
2022/07/15 16:12:59;;;;;;;;;;;;;;;;;;2206462;59;1698;-65
2022/07/15 16:15:32;;;;;;;;;;;;;;;;;;2206714;67;1249;-63
2022/07/15 16:18:05;;;;;;;;;;;;;;;;;;2205749;67;1223;-65
2022/07/15 16:20:39;;;;;;;;;;;;;;;;;;2206291;67;1243;-65
2022/07/15 16:23:10;;;;;;;;;;;;;;;;;;2206105;59;2015;-64
2022/07/15 16:25:43;;;;;;;;;;;;;;;;;;2206126;67;2004;-64
2022/07/15 16:28:19;;;;;;;;;;;;;;;;;;2206678;59;1772;-66
2022/07/15 16:30:52;;;;;;;;;;;;;;;;;;2205632;67;1212;-66
2022/07/15 16:33:25;;;;;;;;;;;;;;;;;;2206698;67;1180;-66
2022/07/15 16:35:59;;;;;;;;;;;;;;;;;;2206836;67;1090;-66
2022/07/15 16:38:32;;;;;;;;;;;;;;;;;;2206926;67;1206;-66
2022/07/15 16:41:05;;;;;;;;;;;;;;;;;;2206657;67;1219;-65
2022/07/15 16:43:41;;;;;;;;;;;;;;;;;;2206234;67;1137;-66
2022/07/15 16:46:14;;;;;;;;;;;;;;;;;;2206644;67;1951;-65
2022/07/15 16:48:47;;;;;;;;;;;;;;;;;;2206289;67;1184;-64
2022/07/15 16:51:20;;;;;;;;;;;;;;;;;;2206513;67;1242;-64
2022/07/15 16:53:53;;;;;;;;;;;;;;;;;;2206427;67;1276;-66
2022/07/15 16:56:26;;;;;;;;;;;;;;;;;;2206403;67;1247;-64
2022/07/15 16:59:03;;;;;;;;;;;;;;;;;;2205311;59;1033;-66
2022/07/15 17:01:36;;;;;;;;;;;;;;;;;;2206970;59;1156;-66
2022/07/15 17:04:09;;;;;;;;;;;;;;;;;;2205703;67;1111;-65
2022/07/15 17:06:42;;;;;;;;;;;;;;;;;;2206441;67;1987;-65
2022/07/15 17:09:15;;;;;;;;;;;;;;;;;;2206193;67;1443;-66
2022/07/15 17:11:48;;;;;;;;;;;;;;;;;;2205741;59;1284;-65
2022/07/15 17:14:24;;;;;;;;;;;;;;;;;;2206104;67;1239;-65
2022/07/15 17:16:57;;;;;;;;;;;;;;;;;;2206398;67;1264;-64
2022/07/15 17:19:31;;;;;;;;;;;;;;;;;;2206013;67;1140;-65
2022/07/15 17:22:05;;;;;;;;;;;;;;;;;;2206190;67;1199;-64
2022/07/15 17:24:38;;;;;;;;;;;;;;;;;;2205683;59;1855;-65
2022/07/15 17:27:11;;;;;;;;;;;;;;;;;;2206249;59;2255;-66
2022/07/15 17:29:47;;;;;;;;;;;;;;;;;;2206101;67;1174;-66
2022/07/15 17:32:20;;;;;;;;;;;;;;;;;;2206151;67;1290;-66
2022/07/15 17:34:53;;;;;;;;;;;;;;;;;;2205705;67;1327;-65
2022/07/15 17:37:26;;;;;;;;;;;;;;;;;;2206212;67;1146;-66
2022/07/15 17:39:59;;;;;;;;;;;;;;;;;;2205650;67;1299;-67
2022/07/15 17:42:33;;;;;;;;;;;;;;;;;;2206263;67;1133;-65
2022/07/15 17:45:09;;;;;;;;;;;;;;;;;;2206328;67;1941;-65
2022/07/15 17:47:42;;;;;;;;;;;;;;;;;;2202991;67;1205;-66
2022/07/15 17:50:17;;;;;;;;;;;;;;;;;;2206381;67;1208;-63
2022/07/15 17:52:50;;;;;;;;;;;;;;;;;;2206448;67;1120;-64
2022/07/15 17:55:23;;;;;;;;;;;;;;;;;;2206731;67;1266;-64
2022/07/15 17:57:56;;;;;;;;;;;;;;;;;;2206361;67;1277;-66
2022/07/15 18:00:32;;;;;;;;;;;;;;;;;;2206937;59;1304;-66
2022/07/15 18:03:06;;;;;;;;;;;;;;;;;;2208279;67;1085;-65
2022/07/15 18:05:39;;;;;;;;;;;;;;;;;;2207070;67;1933;-64
2022/07/15 18:08:12;;;;;;;;;;;;;;;;;;2207695;59;1359;-66
2022/07/15 18:10:46;;;;;;;;;;;;;;;;;;2207164;59;1387;-65
2022/07/15 18:13:19;;;;;;;;;;;;;;;;;;2207428;59;1270;-66
2022/07/15 18:15:55;;;;;;;;;;;;;;;;;;2207103;67;1251;-64
2022/07/15 18:18:28;;;;;;;;;;;;;;;;;;2207445;67;1214;-64
2022/07/15 18:21:02;;;;;;;;;;;;;;;;;;2207574;67;1262;-64